sensor_id;sensor_type;location;lat;lon;timestamp;P1;durP1;ratioP1;P2;durP2;ratioP2
1024;SDS011;501;48.214;11.350;2023-05-17T00:00:50;2.37;;;2.00;;
1024;SDS011;501;48.214;11.350;2023-05-17T00:03:15;5.73;;;2.53;;
1024;SDS011;501;48.214;11.350;2023-05-17T00:05:42;2.63;;;2.20;;
1024;SDS011;501;48.214;11.350;2023-05-17T00:08:07;4.23;;;2.00;;
1024;SDS011;501;48.214;11.350;2023-05-17T00:10:33;4.67;;;2.03;;
1024;SDS011;501;48.214;11.350;2023-05-17T00:12:59;3.93;;;2.50;;
1024;SDS011;501;48.214;11.350;2023-05-17T00:15:24;4.50;;;2.50;;
1024;SDS011;501;48.214;11.350;2023-05-17T00:17:50;3.47;;;2.30;;
1024;SDS011;501;48.214;11.350;2023-05-17T00:20:15;6.03;;;3.00;;
1024;SDS011;501;48.214;11.350;2023-05-17T00:22:41;5.20;;;3.00;;
1024;SDS011;501;48.214;11.350;2023-05-17T00:25:09;6.83;;;2.60;;
1024;SDS011;501;48.214;11.350;2023-05-17T00:27:35;4.83;;;2.40;;
1024;SDS011;501;48.214;11.350;2023-05-17T00:30:00;4.07;;;2.50;;
1024;SDS011;501;48.214;11.350;2023-05-17T00:32:26;4.30;;;3.03;;
1024;SDS011;501;48.214;11.350;2023-05-17T00:34:52;3.70;;;2.43;;
1024;SDS011;501;48.214;11.350;2023-05-17T00:37:17;4.70;;;2.67;;
1024;SDS011;501;48.214;11.350;2023-05-17T00:39:43;3.13;;;2.80;;
1024;SDS011;501;48.214;11.350;2023-05-17T00:42:09;6.70;;;3.20;;
1024;SDS011;501;48.214;11.350;2023-05-17T00:44:35;4.37;;;3.03;;
1024;SDS011;501;48.214;11.350;2023-05-17T00:47:01;4.40;;;3.20;;
1024;SDS011;501;48.214;11.350;2023-05-17T00:49:27;3.53;;;3.00;;
1024;SDS011;501;48.214;11.350;2023-05-17T00:51:53;3.87;;;2.53;;
1024;SDS011;501;48.214;11.350;2023-05-17T00:54:19;3.30;;;2.77;;
1024;SDS011;501;48.214;11.350;2023-05-17T00:56:46;4.30;;;3.00;;
1024;SDS011;501;48.214;11.350;2023-05-17T00:59:12;3.17;;;2.97;;
1024;SDS011;501;48.214;11.350;2023-05-17T01:01:41;8.97;;;3.80;;
1024;SDS011;501;48.214;11.350;2023-05-17T01:04:08;7.57;;;3.70;;
1024;SDS011;501;48.214;11.350;2023-05-17T01:06:34;5.17;;;3.43;;
1024;SDS011;501;48.214;11.350;2023-05-17T01:09:01;4.23;;;3.30;;
1024;SDS011;501;48.214;11.350;2023-05-17T01:11:34;4.00;;;3.03;;
1024;SDS011;501;48.214;11.350;2023-05-17T01:17:13;10.10;;;3.20;;
1024;SDS011;501;48.214;11.350;2023-05-17T01:20:04;3.50;;;2.97;;
1024;SDS011;501;48.214;11.350;2023-05-17T01:25:53;7.10;;;3.10;;
1024;SDS011;501;48.214;11.350;2023-05-17T01:28:37;4.63;;;3.47;;
1024;SDS011;501;48.214;11.350;2023-05-17T01:31:05;3.53;;;3.17;;
1024;SDS011;501;48.214;11.350;2023-05-17T01:33:33;4.03;;;3.10;;
1024;SDS011;501;48.214;11.350;2023-05-17T01:35:59;7.70;;;3.50;;
1024;SDS011;501;48.214;11.350;2023-05-17T01:38:25;7.03;;;2.90;;
1024;SDS011;501;48.214;11.350;2023-05-17T01:43:21;6.93;;;3.40;;
1024;SDS011;501;48.214;11.350;2023-05-17T01:46:21;6.67;;;3.17;;
1024;SDS011;501;48.214;11.350;2023-05-17T01:49:34;4.03;;;3.33;;
1024;SDS011;501;48.214;11.350;2023-05-17T01:54:19;4.43;;;2.57;;
1024;SDS011;501;48.214;11.350;2023-05-17T01:56:47;4.00;;;2.90;;
1024;SDS011;501;48.214;11.350;2023-05-17T01:59:19;5.33;;;3.33;;
1024;SDS011;501;48.214;11.350;2023-05-17T02:01:49;4.80;;;3.00;;
1024;SDS011;501;48.214;11.350;2023-05-17T02:04:21;5.00;;;3.77;;
1024;SDS011;501;48.214;11.350;2023-05-17T02:06:46;4.93;;;3.60;;
1024;SDS011;501;48.214;11.350;2023-05-17T02:09:12;13.10;;;3.73;;
1024;SDS011;501;48.214;11.350;2023-05-17T02:11:38;8.77;;;4.30;;
1024;SDS011;501;48.214;11.350;2023-05-17T02:14:03;3.17;;;2.70;;
1024;SDS011;501;48.214;11.350;2023-05-17T02:16:29;6.17;;;3.67;;
1024;SDS011;501;48.214;11.350;2023-05-17T02:18:55;5.73;;;3.00;;
1024;SDS011;501;48.214;11.350;2023-05-17T02:21:20;6.73;;;3.07;;
1024;SDS011;501;48.214;11.350;2023-05-17T02:23:46;9.03;;;3.23;;
1024;SDS011;501;48.214;11.350;2023-05-17T02:26:11;2.77;;;2.53;;
1024;SDS011;501;48.214;11.350;2023-05-17T02:28:37;4.80;;;2.67;;
1024;SDS011;501;48.214;11.350;2023-05-17T02:31:02;3.27;;;2.97;;
1024;SDS011;501;48.214;11.350;2023-05-17T02:33:28;6.77;;;3.53;;
1024;SDS011;501;48.214;11.350;2023-05-17T02:35:54;3.03;;;2.80;;
1024;SDS011;501;48.214;11.350;2023-05-17T02:38:19;2.80;;;2.60;;
1024;SDS011;501;48.214;11.350;2023-05-17T02:40:45;4.63;;;2.60;;
1024;SDS011;501;48.214;11.350;2023-05-17T02:43:11;3.33;;;2.40;;
1024;SDS011;501;48.214;11.350;2023-05-17T02:45:36;6.10;;;3.57;;
1024;SDS011;501;48.214;11.350;2023-05-17T02:48:02;3.40;;;2.70;;
1024;SDS011;501;48.214;11.350;2023-05-17T02:50:28;2.80;;;2.50;;
1024;SDS011;501;48.214;11.350;2023-05-17T02:52:53;3.73;;;2.73;;
1024;SDS011;501;48.214;11.350;2023-05-17T02:55:19;4.60;;;2.77;;
1024;SDS011;501;48.214;11.350;2023-05-17T02:57:45;3.73;;;2.60;;
1024;SDS011;501;48.214;11.350;2023-05-17T03:00:11;4.57;;;2.27;;
1024;SDS011;501;48.214;11.350;2023-05-17T03:02:37;4.33;;;3.10;;
1024;SDS011;501;48.214;11.350;2023-05-17T03:05:02;3.43;;;2.10;;
1024;SDS011;501;48.214;11.350;2023-05-17T03:07:28;4.03;;;2.70;;
1024;SDS011;501;48.214;11.350;2023-05-17T03:09:54;4.00;;;2.20;;
1024;SDS011;501;48.214;11.350;2023-05-17T03:12:20;6.67;;;2.93;;
1024;SDS011;501;48.214;11.350;2023-05-17T03:14:45;4.10;;;2.30;;
1024;SDS011;501;48.214;11.350;2023-05-17T03:17:11;5.77;;;3.20;;
1024;SDS011;501;48.214;11.350;2023-05-17T03:19:37;2.33;;;2.13;;
1024;SDS011;501;48.214;11.350;2023-05-17T03:22:02;2.30;;;2.10;;
1024;SDS011;501;48.214;11.350;2023-05-17T03:24:28;3.77;;;2.80;;
1024;SDS011;501;48.214;11.350;2023-05-17T03:26:53;3.53;;;2.80;;
1024;SDS011;501;48.214;11.350;2023-05-17T03:29:19;2.10;;;2.00;;
1024;SDS011;501;48.214;11.350;2023-05-17T03:31:45;3.30;;;2.17;;
1024;SDS011;501;48.214;11.350;2023-05-17T03:34:11;3.67;;;2.63;;
1024;SDS011;501;48.214;11.350;2023-05-17T03:36:37;3.20;;;2.80;;
1024;SDS011;501;48.214;11.350;2023-05-17T03:39:05;3.23;;;2.17;;
1024;SDS011;501;48.214;11.350;2023-05-17T03:41:31;3.10;;;2.43;;
1024;SDS011;501;48.214;11.350;2023-05-17T03:43:57;3.00;;;2.57;;
1024;SDS011;501;48.214;11.350;2023-05-17T03:46:23;4.17;;;2.50;;
1024;SDS011;501;48.214;11.350;2023-05-17T03:48:49;3.57;;;1.93;;
1024;SDS011;501;48.214;11.350;2023-05-17T03:51:15;7.13;;;2.70;;
1024;SDS011;501;48.214;11.350;2023-05-17T03:53:41;2.27;;;2.07;;
1024;SDS011;501;48.214;11.350;2023-05-17T03:56:10;4.40;;;2.27;;
1024;SDS011;501;48.214;11.350;2023-05-17T03:58:36;8.07;;;2.60;;
1024;SDS011;501;48.214;11.350;2023-05-17T04:01:02;3.40;;;2.57;;
1024;SDS011;501;48.214;11.350;2023-05-17T04:03:28;7.03;;;2.20;;
1024;SDS011;501;48.214;11.350;2023-05-17T04:06:04;5.57;;;2.23;;
1024;SDS011;501;48.214;11.350;2023-05-17T04:08:31;4.40;;;2.60;;
1024;SDS011;501;48.214;11.350;2023-05-17T04:10:57;5.57;;;3.10;;
1024;SDS011;501;48.214;11.350;2023-05-17T04:13:23;2.60;;;1.73;;
1024;SDS011;501;48.214;11.350;2023-05-17T04:15:49;6.13;;;2.30;;
1024;SDS011;501;48.214;11.350;2023-05-17T04:18:15;4.30;;;2.57;;
1024;SDS011;501;48.214;11.350;2023-05-17T04:20:41;2.50;;;1.90;;
1024;SDS011;501;48.214;11.350;2023-05-17T04:23:07;3.00;;;1.97;;
1024;SDS011;501;48.214;11.350;2023-05-17T04:25:32;6.30;;;2.53;;
1024;SDS011;501;48.214;11.350;2023-05-17T04:27:58;1.97;;;1.80;;
1024;SDS011;501;48.214;11.350;2023-05-17T04:30:24;2.83;;;2.00;;
1024;SDS011;501;48.214;11.350;2023-05-17T04:32:49;3.50;;;2.20;;
1024;SDS011;501;48.214;11.350;2023-05-17T04:35:15;3.33;;;2.70;;
1024;SDS011;501;48.214;11.350;2023-05-17T04:37:40;3.50;;;2.80;;
1024;SDS011;501;48.214;11.350;2023-05-17T04:40:07;3.33;;;2.17;;
1024;SDS011;501;48.214;11.350;2023-05-17T04:42:34;1.63;;;1.37;;
1024;SDS011;501;48.214;11.350;2023-05-17T04:44:59;3.87;;;2.10;;
1024;SDS011;501;48.214;11.350;2023-05-17T04:47:25;6.77;;;1.70;;
1024;SDS011;501;48.214;11.350;2023-05-17T04:49:51;3.63;;;2.13;;
1024;SDS011;501;48.214;11.350;2023-05-17T04:52:16;3.93;;;1.87;;
1024;SDS011;501;48.214;11.350;2023-05-17T04:54:42;2.20;;;1.60;;
1024;SDS011;501;48.214;11.350;2023-05-17T04:57:07;5.23;;;1.77;;
1024;SDS011;501;48.214;11.350;2023-05-17T04:59:33;3.17;;;1.87;;
1024;SDS011;501;48.214;11.350;2023-05-17T05:01:58;4.83;;;2.13;;
1024;SDS011;501;48.214;11.350;2023-05-17T05:04:25;2.00;;;1.80;;
1024;SDS011;501;48.214;11.350;2023-05-17T05:06:50;4.00;;;1.90;;
1024;SDS011;501;48.214;11.350;2023-05-17T05:09:16;5.33;;;1.70;;
1024;SDS011;501;48.214;11.350;2023-05-17T05:11:41;4.20;;;2.47;;
1024;SDS011;501;48.214;11.350;2023-05-17T05:14:07;4.37;;;1.83;;
1024;SDS011;501;48.214;11.350;2023-05-17T05:16:33;3.77;;;1.63;;
1024;SDS011;501;48.214;11.350;2023-05-17T05:18:58;2.97;;;1.80;;
1024;SDS011;501;48.214;11.350;2023-05-17T05:21:24;3.10;;;1.80;;
1024;SDS011;501;48.214;11.350;2023-05-17T05:23:50;4.40;;;2.53;;
1024;SDS011;501;48.214;11.350;2023-05-17T05:26:15;2.40;;;1.60;;
1024;SDS011;501;48.214;11.350;2023-05-17T05:28:41;2.30;;;1.87;;
1024;SDS011;501;48.214;11.350;2023-05-17T05:31:07;1.97;;;1.60;;
1024;SDS011;501;48.214;11.350;2023-05-17T05:33:32;6.83;;;1.80;;
1024;SDS011;501;48.214;11.350;2023-05-17T05:35:58;3.40;;;1.80;;
1024;SDS011;501;48.214;11.350;2023-05-17T05:38:23;3.33;;;2.13;;
1024;SDS011;501;48.214;11.350;2023-05-17T05:40:49;3.37;;;2.63;;
1024;SDS011;501;48.214;11.350;2023-05-17T05:45:43;3.23;;;2.33;;
1024;SDS011;501;48.214;11.350;2023-05-17T05:48:12;4.30;;;1.83;;
1024;SDS011;501;48.214;11.350;2023-05-17T05:50:38;2.93;;;1.73;;
1024;SDS011;501;48.214;11.350;2023-05-17T05:53:05;4.50;;;2.00;;
1024;SDS011;501;48.214;11.350;2023-05-17T05:55:31;1.53;;;1.43;;
1024;SDS011;501;48.214;11.350;2023-05-17T05:57:56;1.70;;;1.60;;
1024;SDS011;501;48.214;11.350;2023-05-17T06:00:22;6.10;;;2.07;;
1024;SDS011;501;48.214;11.350;2023-05-17T06:02:48;3.23;;;1.50;;
1024;SDS011;501;48.214;11.350;2023-05-17T06:05:13;5.00;;;1.67;;
1024;SDS011;501;48.214;11.350;2023-05-17T06:07:39;3.10;;;1.90;;
1024;SDS011;501;48.214;11.350;2023-05-17T06:10:05;2.30;;;1.60;;
1024;SDS011;501;48.214;11.350;2023-05-17T06:12:31;3.50;;;1.53;;
1024;SDS011;501;48.214;11.350;2023-05-17T06:14:56;3.17;;;1.80;;
1024;SDS011;501;48.214;11.350;2023-05-17T06:17:22;6.03;;;2.40;;
1024;SDS011;501;48.214;11.350;2023-05-17T06:19:48;4.53;;;1.50;;
1024;SDS011;501;48.214;11.350;2023-05-17T06:22:14;4.90;;;1.60;;
1024;SDS011;501;48.214;11.350;2023-05-17T06:24:40;2.87;;;1.70;;
1024;SDS011;501;48.214;11.350;2023-05-17T06:27:05;4.37;;;2.07;;
1024;SDS011;501;48.214;11.350;2023-05-17T06:29:31;5.07;;;1.40;;
1024;SDS011;501;48.214;11.350;2023-05-17T06:31:57;7.27;;;1.83;;
1024;SDS011;501;48.214;11.350;2023-05-17T06:34:23;3.03;;;1.60;;
1024;SDS011;501;48.214;11.350;2023-05-17T06:36:50;2.40;;;2.00;;
1024;SDS011;501;48.214;11.350;2023-05-17T06:39:15;4.30;;;1.87;;
1024;SDS011;501;48.214;11.350;2023-05-17T06:41:41;3.67;;;1.70;;
1024;SDS011;501;48.214;11.350;2023-05-17T06:44:07;5.40;;;1.93;;
1024;SDS011;501;48.214;11.350;2023-05-17T06:46:33;2.93;;;1.87;;
1024;SDS011;501;48.214;11.350;2023-05-17T06:48:58;2.30;;;1.70;;
1024;SDS011;501;48.214;11.350;2023-05-17T06:51:24;2.33;;;1.43;;
1024;SDS011;501;48.214;11.350;2023-05-17T06:53:50;3.77;;;1.87;;
1024;SDS011;501;48.214;11.350;2023-05-17T06:56:15;3.67;;;1.83;;
1024;SDS011;501;48.214;11.350;2023-05-17T06:58:41;2.63;;;1.50;;
1024;SDS011;501;48.214;11.350;2023-05-17T07:01:06;5.30;;;2.00;;
1024;SDS011;501;48.214;11.350;2023-05-17T07:03:32;3.70;;;2.00;;
1024;SDS011;501;48.214;11.350;2023-05-17T07:05:59;1.77;;;1.53;;
1024;SDS011;501;48.214;11.350;2023-05-17T07:08:25;4.43;;;1.97;;
1024;SDS011;501;48.214;11.350;2023-05-17T07:10:51;2.43;;;1.27;;
1024;SDS011;501;48.214;11.350;2023-05-17T07:13:17;3.30;;;1.80;;
1024;SDS011;501;48.214;11.350;2023-05-17T07:15:43;4.50;;;2.20;;
1024;SDS011;501;48.214;11.350;2023-05-17T07:18:09;2.90;;;1.20;;
1024;SDS011;501;48.214;11.350;2023-05-17T07:20:34;3.07;;;1.80;;
1024;SDS011;501;48.214;11.350;2023-05-17T07:23:00;1.73;;;1.50;;
1024;SDS011;501;48.214;11.350;2023-05-17T07:25:26;4.80;;;2.40;;
1024;SDS011;501;48.214;11.350;2023-05-17T07:27:51;7.37;;;2.33;;
1024;SDS011;501;48.214;11.350;2023-05-17T07:30:17;3.30;;;1.87;;
1024;SDS011;501;48.214;11.350;2023-05-17T07:32:43;2.17;;;1.80;;
1024;SDS011;501;48.214;11.350;2023-05-17T07:35:08;2.43;;;1.83;;
1024;SDS011;501;48.214;11.350;2023-05-17T07:37:34;4.47;;;1.90;;
1024;SDS011;501;48.214;11.350;2023-05-17T07:40:00;2.73;;;1.70;;
1024;SDS011;501;48.214;11.350;2023-05-17T07:42:26;2.17;;;1.67;;
1024;SDS011;501;48.214;11.350;2023-05-17T07:44:51;3.10;;;1.77;;
1024;SDS011;501;48.214;11.350;2023-05-17T07:47:17;3.27;;;1.53;;
1024;SDS011;501;48.214;11.350;2023-05-17T07:49:43;3.00;;;1.63;;
1024;SDS011;501;48.214;11.350;2023-05-17T07:52:08;6.57;;;1.80;;
1024;SDS011;501;48.214;11.350;2023-05-17T07:54:34;7.67;;;1.43;;
1024;SDS011;501;48.214;11.350;2023-05-17T07:56:59;2.30;;;1.63;;
1024;SDS011;501;48.214;11.350;2023-05-17T07:59:25;4.30;;;2.07;;
1024;SDS011;501;48.214;11.350;2023-05-17T08:01:51;2.90;;;1.57;;
1024;SDS011;501;48.214;11.350;2023-05-17T08:04:18;5.20;;;1.87;;
1024;SDS011;501;48.214;11.350;2023-05-17T08:06:43;4.47;;;1.50;;
1024;SDS011;501;48.214;11.350;2023-05-17T08:09:12;4.17;;;2.00;;
1024;SDS011;501;48.214;11.350;2023-05-17T08:11:40;3.17;;;1.93;;
1024;SDS011;501;48.214;11.350;2023-05-17T08:14:13;2.73;;;1.70;;
1024;SDS011;501;48.214;11.350;2023-05-17T08:16:43;4.40;;;1.70;;
1024;SDS011;501;48.214;11.350;2023-05-17T08:19:10;1.83;;;1.70;;
1024;SDS011;501;48.214;11.350;2023-05-17T08:21:37;3.33;;;1.57;;
1024;SDS011;501;48.214;11.350;2023-05-17T08:24:03;2.87;;;2.27;;
1024;SDS011;501;48.214;11.350;2023-05-17T08:26:29;3.50;;;1.60;;
1024;SDS011;501;48.214;11.350;2023-05-17T08:28:55;4.40;;;1.60;;
1024;SDS011;501;48.214;11.350;2023-05-17T08:31:20;3.00;;;1.67;;
1024;SDS011;501;48.214;11.350;2023-05-17T08:33:46;2.60;;;1.63;;
1024;SDS011;501;48.214;11.350;2023-05-17T08:36:11;5.10;;;1.73;;
1024;SDS011;501;48.214;11.350;2023-05-17T08:38:37;2.20;;;1.63;;
1024;SDS011;501;48.214;11.350;2023-05-17T08:41:03;1.97;;;1.67;;
1024;SDS011;501;48.214;11.350;2023-05-17T08:43:28;3.80;;;1.90;;
1024;SDS011;501;48.214;11.350;2023-05-17T08:45:55;4.77;;;1.43;;
1024;SDS011;501;48.214;11.350;2023-05-17T08:48:23;4.47;;;1.20;;
1024;SDS011;501;48.214;11.350;2023-05-17T08:50:55;2.07;;;1.20;;
1024;SDS011;501;48.214;11.350;2023-05-17T08:53:24;2.13;;;1.10;;
1024;SDS011;501;48.214;11.350;2023-05-17T08:55:50;3.80;;;1.80;;
1024;SDS011;501;48.214;11.350;2023-05-17T08:58:24;1.10;;;1.00;;
1024;SDS011;501;48.214;11.350;2023-05-17T09:00:51;2.20;;;1.17;;
1024;SDS011;501;48.214;11.350;2023-05-17T09:03:20;2.53;;;1.27;;
1024;SDS011;501;48.214;11.350;2023-05-17T09:05:48;1.43;;;1.33;;
1024;SDS011;501;48.214;11.350;2023-05-17T09:08:21;3.23;;;1.63;;
1024;SDS011;501;48.214;11.350;2023-05-17T09:10:47;2.53;;;1.57;;
1024;SDS011;501;48.214;11.350;2023-05-17T09:13:13;2.93;;;1.73;;
1024;SDS011;501;48.214;11.350;2023-05-17T09:15:42;2.77;;;1.13;;
1024;SDS011;501;48.214;11.350;2023-05-17T09:18:12;3.83;;;1.30;;
1024;SDS011;501;48.214;11.350;2023-05-17T09:20:38;3.50;;;1.50;;
1024;SDS011;501;48.214;11.350;2023-05-17T09:23:05;2.30;;;1.37;;
1024;SDS011;501;48.214;11.350;2023-05-17T09:25:33;3.73;;;1.70;;
1024;SDS011;501;48.214;11.350;2023-05-17T09:28:00;2.33;;;1.33;;
1024;SDS011;501;48.214;11.350;2023-05-17T09:30:32;1.77;;;1.30;;
1024;SDS011;501;48.214;11.350;2023-05-17T09:33:08;1.90;;;1.00;;
1024;SDS011;501;48.214;11.350;2023-05-17T09:35:35;2.50;;;1.47;;
1024;SDS011;501;48.214;11.350;2023-05-17T09:38:09;3.10;;;1.90;;
1024;SDS011;501;48.214;11.350;2023-05-17T09:40:38;2.60;;;1.30;;
1024;SDS011;501;48.214;11.350;2023-05-17T09:43:05;1.80;;;1.67;;
1024;SDS011;501;48.214;11.350;2023-05-17T09:45:31;2.80;;;1.13;;
1024;SDS011;501;48.214;11.350;2023-05-17T09:50:57;2.50;;;1.60;;
1024;SDS011;501;48.214;11.350;2023-05-17T09:53:25;1.77;;;1.20;;
1024;SDS011;501;48.214;11.350;2023-05-17T09:55:56;2.23;;;1.73;;
1024;SDS011;501;48.214;11.350;2023-05-17T09:58:24;2.37;;;1.20;;
1024;SDS011;501;48.214;11.350;2023-05-17T10:00:52;2.50;;;1.47;;
1024;SDS011;501;48.214;11.350;2023-05-17T10:03:20;1.80;;;1.40;;
1024;SDS011;501;48.214;11.350;2023-05-17T10:05:48;1.60;;;1.00;;
1024;SDS011;501;48.214;11.350;2023-05-17T10:08:16;1.87;;;1.23;;
1024;SDS011;501;48.214;11.350;2023-05-17T10:10:45;1.90;;;1.30;;
1024;SDS011;501;48.214;11.350;2023-05-17T10:13:12;3.10;;;1.93;;
1024;SDS011;501;48.214;11.350;2023-05-17T10:15:41;2.10;;;1.43;;
1024;SDS011;501;48.214;11.350;2023-05-17T10:18:07;2.23;;;1.30;;
1024;SDS011;501;48.214;11.350;2023-05-17T10:20:34;1.43;;;1.30;;
1024;SDS011;501;48.214;11.350;2023-05-17T10:23:00;1.70;;;1.60;;
1024;SDS011;501;48.214;11.350;2023-05-17T10:25:29;1.93;;;1.33;;
1024;SDS011;501;48.214;11.350;2023-05-17T10:27:55;8.47;;;1.73;;
1024;SDS011;501;48.214;11.350;2023-05-17T10:30:21;4.10;;;1.57;;
1024;SDS011;501;48.214;11.350;2023-05-17T10:32:47;1.77;;;1.13;;
1024;SDS011;501;48.214;11.350;2023-05-17T10:35:14;7.00;;;2.70;;
1024;SDS011;501;48.214;11.350;2023-05-17T10:37:41;4.93;;;1.90;;
1024;SDS011;501;48.214;11.350;2023-05-17T10:40:08;5.33;;;1.93;;
1024;SDS011;501;48.214;11.350;2023-05-17T10:42:41;3.10;;;1.30;;
1024;SDS011;501;48.214;11.350;2023-05-17T10:45:11;4.03;;;1.77;;
1024;SDS011;501;48.214;11.350;2023-05-17T10:47:38;3.73;;;1.80;;
1024;SDS011;501;48.214;11.350;2023-05-17T10:50:09;1.40;;;1.27;;
1024;SDS011;501;48.214;11.350;2023-05-17T10:52:37;2.00;;;1.40;;
1024;SDS011;501;48.214;11.350;2023-05-17T10:55:09;2.43;;;1.50;;
1024;SDS011;501;48.214;11.350;2023-05-17T10:57:35;4.27;;;1.73;;
1024;SDS011;501;48.214;11.350;2023-05-17T11:00:02;1.47;;;1.27;;
1024;SDS011;501;48.214;11.350;2023-05-17T11:02:33;5.37;;;1.90;;
1024;SDS011;501;48.214;11.350;2023-05-17T11:05:03;2.37;;;1.90;;
1024;SDS011;501;48.214;11.350;2023-05-17T11:07:30;1.70;;;1.43;;
1024;SDS011;501;48.214;11.350;2023-05-17T11:12:39;2.57;;;1.87;;
1024;SDS011;501;48.214;11.350;2023-05-17T11:15:10;2.20;;;1.47;;
1024;SDS011;501;48.214;11.350;2023-05-17T11:25:32;4.33;;;1.80;;
1024;SDS011;501;48.214;11.350;2023-05-17T11:28:00;2.30;;;1.80;;
1024;SDS011;501;48.214;11.350;2023-05-17T11:30:30;2.50;;;1.60;;
1024;SDS011;501;48.214;11.350;2023-05-17T11:33:03;5.03;;;1.70;;
1024;SDS011;501;48.214;11.350;2023-05-17T11:35:36;2.97;;;1.53;;
1024;SDS011;501;48.214;11.350;2023-05-17T11:40:47;3.20;;;1.50;;
1024;SDS011;501;48.214;11.350;2023-05-17T11:43:21;4.00;;;1.53;;
1024;SDS011;501;48.214;11.350;2023-05-17T11:45:48;3.07;;;1.60;;
1024;SDS011;501;48.214;11.350;2023-05-17T11:48:22;2.70;;;2.20;;
1024;SDS011;501;48.214;11.350;2023-05-17T11:50:49;4.20;;;1.80;;
1024;SDS011;501;48.214;11.350;2023-05-17T11:53:16;4.00;;;2.10;;
1024;SDS011;501;48.214;11.350;2023-05-17T11:55:43;3.10;;;2.03;;
1024;SDS011;501;48.214;11.350;2023-05-17T11:58:15;3.33;;;1.43;;
1024;SDS011;501;48.214;11.350;2023-05-17T12:00:42;1.60;;;1.10;;
1024;SDS011;501;48.214;11.350;2023-05-17T12:03:27;3.30;;;1.80;;
1024;SDS011;501;48.214;11.350;2023-05-17T12:06:00;3.27;;;2.13;;
1024;SDS011;501;48.214;11.350;2023-05-17T12:08:32;3.60;;;1.67;;
1024;SDS011;501;48.214;11.350;2023-05-17T12:10:59;2.17;;;1.80;;
1024;SDS011;501;48.214;11.350;2023-05-17T12:13:29;3.67;;;1.77;;
1024;SDS011;501;48.214;11.350;2023-05-17T12:15:58;2.93;;;1.97;;
1024;SDS011;501;48.214;11.350;2023-05-17T12:18:39;2.23;;;1.80;;
1024;SDS011;501;48.214;11.350;2023-05-17T12:21:06;2.20;;;2.00;;
1024;SDS011;501;48.214;11.350;2023-05-17T12:23:37;5.77;;;1.80;;
1024;SDS011;501;48.214;11.350;2023-05-17T12:26:08;2.43;;;1.40;;
1024;SDS011;501;48.214;11.350;2023-05-17T12:28:39;1.93;;;1.70;;
1024;SDS011;501;48.214;11.350;2023-05-17T12:31:18;2.17;;;1.97;;
1024;SDS011;501;48.214;11.350;2023-05-17T12:33:49;3.33;;;1.90;;
1024;SDS011;501;48.214;11.350;2023-05-17T12:36:14;2.07;;;1.73;;
1024;SDS011;501;48.214;11.350;2023-05-17T12:38:41;4.03;;;1.97;;
1024;SDS011;501;48.214;11.350;2023-05-17T12:41:12;2.70;;;1.83;;
1024;SDS011;501;48.214;11.350;2023-05-17T12:43:39;2.17;;;1.30;;
1024;SDS011;501;48.214;11.350;2023-05-17T12:46:17;3.00;;;1.43;;
1024;SDS011;501;48.214;11.350;2023-05-17T12:48:44;2.77;;;1.67;;
1024;SDS011;501;48.214;11.350;2023-05-17T12:54:12;6.47;;;2.40;;
1024;SDS011;501;48.214;11.350;2023-05-17T12:56:30;2.90;;;2.60;;
1024;SDS011;501;48.214;11.350;2023-05-17T12:59:11;2.73;;;2.33;;
1024;SDS011;501;48.214;11.350;2023-05-17T13:01:43;1.73;;;1.50;;
1024;SDS011;501;48.214;11.350;2023-05-17T13:04:11;2.27;;;1.90;;
1024;SDS011;501;48.214;11.350;2023-05-17T13:06:56;2.60;;;2.17;;
1024;SDS011;501;48.214;11.350;2023-05-17T13:09:24;3.07;;;2.23;;
1024;SDS011;501;48.214;11.350;2023-05-17T13:12:04;5.30;;;2.30;;
1024;SDS011;501;48.214;11.350;2023-05-17T13:14:52;4.73;;;2.30;;
1024;SDS011;501;48.214;11.350;2023-05-17T13:17:25;2.27;;;2.07;;
1024;SDS011;501;48.214;11.350;2023-05-17T13:19:58;2.00;;;1.80;;
1024;SDS011;501;48.214;11.350;2023-05-17T13:22:23;3.37;;;2.03;;
1024;SDS011;501;48.214;11.350;2023-05-17T13:24:49;4.63;;;2.17;;
1024;SDS011;501;48.214;11.350;2023-05-17T13:27:15;3.37;;;2.27;;
1024;SDS011;501;48.214;11.350;2023-05-17T13:29:41;3.33;;;2.43;;
1024;SDS011;501;48.214;11.350;2023-05-17T13:32:08;2.40;;;1.60;;
1024;SDS011;501;48.214;11.350;2023-05-17T13:34:36;3.30;;;3.00;;
1024;SDS011;501;48.214;11.350;2023-05-17T13:37:02;3.00;;;1.80;;
1024;SDS011;501;48.214;11.350;2023-05-17T13:39:29;4.57;;;2.27;;
1024;SDS011;501;48.214;11.350;2023-05-17T13:41:54;3.33;;;1.93;;
1024;SDS011;501;48.214;11.350;2023-05-17T13:44:20;2.50;;;2.20;;
1024;SDS011;501;48.214;11.350;2023-05-17T13:46:46;3.00;;;2.10;;
1024;SDS011;501;48.214;11.350;2023-05-17T13:49:11;3.43;;;2.90;;
1024;SDS011;501;48.214;11.350;2023-05-17T13:51:38;2.37;;;2.17;;
1024;SDS011;501;48.214;11.350;2023-05-17T13:54:04;3.33;;;2.27;;
1024;SDS011;501;48.214;11.350;2023-05-17T13:56:31;2.50;;;1.77;;
1024;SDS011;501;48.214;11.350;2023-05-17T13:58:57;2.40;;;1.80;;
1024;SDS011;501;48.214;11.350;2023-05-17T14:01:23;3.13;;;2.30;;
1024;SDS011;501;48.214;11.350;2023-05-17T14:03:48;2.53;;;1.90;;
1024;SDS011;501;48.214;11.350;2023-05-17T14:06:14;2.67;;;2.03;;
1024;SDS011;501;48.214;11.350;2023-05-17T14:08:40;4.13;;;2.40;;
1024;SDS011;501;48.214;11.350;2023-05-17T14:11:05;3.00;;;2.30;;
1024;SDS011;501;48.214;11.350;2023-05-17T14:13:31;3.67;;;1.70;;
1024;SDS011;501;48.214;11.350;2023-05-17T14:15:56;3.13;;;2.00;;
1024;SDS011;501;48.214;11.350;2023-05-17T14:18:22;1.90;;;1.50;;
1024;SDS011;501;48.214;11.350;2023-05-17T14:20:48;2.83;;;2.40;;
1024;SDS011;501;48.214;11.350;2023-05-17T14:23:13;3.70;;;2.40;;
1024;SDS011;501;48.214;11.350;2023-05-17T14:25:39;3.73;;;2.63;;
1024;SDS011;501;48.214;11.350;2023-05-17T14:28:07;3.43;;;2.33;;
1024;SDS011;501;48.214;11.350;2023-05-17T14:30:33;3.80;;;1.97;;
1024;SDS011;501;48.214;11.350;2023-05-17T14:32:58;3.70;;;2.30;;
1024;SDS011;501;48.214;11.350;2023-05-17T14:35:24;4.20;;;2.20;;
1024;SDS011;501;48.214;11.350;2023-05-17T14:37:50;6.20;;;2.53;;
1024;SDS011;501;48.214;11.350;2023-05-17T14:40:15;3.37;;;2.40;;
1024;SDS011;501;48.214;11.350;2023-05-17T14:42:41;4.13;;;2.97;;
1024;SDS011;501;48.214;11.350;2023-05-17T14:45:07;2.70;;;2.00;;
1024;SDS011;501;48.214;11.350;2023-05-17T14:47:33;3.17;;;2.37;;
1024;SDS011;501;48.214;11.350;2023-05-17T14:49:59;3.60;;;2.27;;
1024;SDS011;501;48.214;11.350;2023-05-17T14:52:25;4.33;;;2.10;;
1024;SDS011;501;48.214;11.350;2023-05-17T14:54:50;4.00;;;2.20;;
1024;SDS011;501;48.214;11.350;2023-05-17T14:57:16;2.63;;;2.30;;
1024;SDS011;501;48.214;11.350;2023-05-17T14:59:42;4.20;;;2.37;;
1024;SDS011;501;48.214;11.350;2023-05-17T15:02:08;5.00;;;2.50;;
1024;SDS011;501;48.214;11.350;2023-05-17T15:04:34;3.30;;;2.37;;
1024;SDS011;501;48.214;11.350;2023-05-17T15:07:00;4.37;;;2.33;;
1024;SDS011;501;48.214;11.350;2023-05-17T15:09:26;3.10;;;2.07;;
1024;SDS011;501;48.214;11.350;2023-05-17T15:11:54;2.20;;;1.87;;
1024;SDS011;501;48.214;11.350;2023-05-17T15:14:20;6.07;;;2.43;;
1024;SDS011;501;48.214;11.350;2023-05-17T15:16:47;5.60;;;2.93;;
1024;SDS011;501;48.214;11.350;2023-05-17T15:19:14;3.20;;;2.60;;
1024;SDS011;501;48.214;11.350;2023-05-17T15:21:40;3.40;;;2.50;;
1024;SDS011;501;48.214;11.350;2023-05-17T15:24:06;3.53;;;2.43;;
1024;SDS011;501;48.214;11.350;2023-05-17T15:26:32;5.47;;;3.40;;
1024;SDS011;501;48.214;11.350;2023-05-17T15:28:57;4.60;;;3.10;;
1024;SDS011;501;48.214;11.350;2023-05-17T15:31:23;3.53;;;2.90;;
1024;SDS011;501;48.214;11.350;2023-05-17T15:33:49;4.50;;;3.20;;
1024;SDS011;501;48.214;11.350;2023-05-17T15:36:15;5.00;;;2.70;;
1024;SDS011;501;48.214;11.350;2023-05-17T15:38:41;3.27;;;2.97;;
1024;SDS011;501;48.214;11.350;2023-05-17T15:41:09;6.73;;;2.80;;
1024;SDS011;501;48.214;11.350;2023-05-17T15:43:36;5.03;;;3.53;;
1024;SDS011;501;48.214;11.350;2023-05-17T15:46:02;5.97;;;3.47;;
1024;SDS011;501;48.214;11.350;2023-05-17T15:48:28;4.63;;;3.10;;